createdAt,value
2022-09-12T00:02:09.925Z,3.28
2022-09-12T00:04:36.335Z,3.47
2022-09-12T00:07:02.741Z,3.63
2022-09-12T00:09:29.161Z,3.80
2022-09-12T00:11:55.555Z,3.30
2022-09-12T00:14:21.949Z,3.30
2022-09-12T00:16:48.441Z,4.50
2022-09-12T00:19:15.268Z,5.80
2022-09-12T00:21:41.777Z,6.55
2022-09-12T00:24:09.661Z,5.50
2022-09-12T00:26:36.162Z,3.97
2022-09-12T00:29:02.568Z,3.63
2022-09-12T00:31:29.364Z,3.22
2022-09-12T00:33:57.418Z,3.70
2022-09-12T00:36:25.347Z,3.78
2022-09-12T00:38:52.060Z,6.15
2022-09-12T00:41:22.144Z,3.25
2022-09-12T00:43:55.948Z,3.67
2022-09-12T00:46:49.189Z,3.97
2022-09-12T00:49:24.480Z,3.47
2022-09-12T00:51:54.479Z,3.03
2022-09-12T00:54:23.044Z,3.83
2022-09-12T00:56:50.339Z,3.42
2022-09-12T00:59:19.574Z,3.28
2022-09-12T01:01:48.994Z,3.63
2022-09-12T01:04:16.056Z,3.13
2022-09-12T01:06:43.994Z,3.50
2022-09-12T01:09:13.442Z,3.30
2022-09-12T01:11:40.272Z,3.10
2022-09-12T01:14:07.494Z,3.50
2022-09-12T01:16:37.628Z,3.20
2022-09-12T01:19:04.006Z,6.47
2022-09-12T01:21:55.846Z,4.63
2022-09-12T01:24:40.738Z,4.25
2022-09-12T01:27:19.087Z,3.70
2022-09-12T01:29:56.744Z,3.78
2022-09-12T01:32:41.876Z,4.75
2022-09-12T01:35:22.853Z,3.17
2022-09-12T01:38:03.278Z,3.67
2022-09-12T01:40:35.106Z,3.65
2022-09-12T01:43:26.278Z,3.67
2022-09-12T01:46:03.164Z,3.70
2022-09-12T01:48:35.762Z,3.63
2022-09-12T01:51:13.918Z,3.33
2022-09-12T01:53:44.397Z,3.92
2022-09-12T01:56:26.545Z,3.00
2022-09-12T01:59:35.632Z,4.07
2022-09-12T02:02:08.156Z,3.25
2022-09-12T02:04:58.540Z,3.25
2022-09-12T02:07:37.381Z,4.63
2022-09-12T02:10:12.936Z,2.90
2022-09-12T02:12:44.494Z,3.47
2022-09-12T02:15:12.366Z,5.38
2022-09-12T02:17:43.359Z,3.50
2022-09-12T02:20:44.066Z,3.80
2022-09-12T02:23:09.498Z,3.42
2022-09-12T02:25:38.071Z,3.65
2022-09-12T02:28:07.100Z,3.13
2022-09-12T02:30:52.243Z,3.75
2022-09-12T02:33:26.664Z,4.03
2022-09-12T02:36:04.237Z,4.38
2022-09-12T02:38:44.500Z,4.00
2022-09-12T02:41:12.229Z,3.78
2022-09-12T02:43:38.747Z,4.50
2022-09-12T02:46:12.670Z,3.78
2022-09-12T02:48:41.614Z,3.58
2022-09-12T02:51:08.234Z,4.13
2022-09-12T02:53:35.772Z,3.85
2022-09-12T02:56:02.873Z,4.28
2022-09-12T02:58:31.412Z,3.13
2022-09-12T03:01:23.461Z,3.17
2022-09-12T03:04:11.752Z,3.83
2022-09-12T03:06:50.175Z,3.95
2022-09-12T03:09:20.816Z,4.90
2022-09-12T03:11:59.175Z,3.78
2022-09-12T03:15:02.712Z,3.70
2022-09-12T03:17:57.180Z,4.00
2022-09-12T03:20:44.500Z,3.75
2022-09-12T03:23:26.022Z,3.25
2022-09-12T03:26:04.188Z,3.50
2022-09-12T03:28:31.301Z,4.40
2022-09-12T03:30:58.082Z,3.28
2022-09-12T03:33:25.525Z,3.83
2022-09-12T03:35:53.106Z,3.80
2022-09-12T03:38:19.956Z,4.05
2022-09-12T03:40:47.792Z,3.75
2022-09-12T03:43:16.748Z,4.30
2022-09-12T03:45:43.194Z,3.60
2022-09-12T03:48:09.682Z,3.47
2022-09-12T03:50:36.079Z,3.97
2022-09-12T03:53:03.199Z,3.47
2022-09-12T03:55:29.752Z,5.03
2022-09-12T03:57:56.479Z,3.75
2022-09-12T04:00:22.918Z,3.67
2022-09-12T04:02:53.592Z,7.25
2022-09-12T04:05:19.988Z,4.85
2022-09-12T04:07:46.362Z,4.35
2022-09-12T04:10:12.760Z,4.32
2022-09-12T04:12:39.493Z,3.50
2022-09-12T04:15:07.458Z,4.38
2022-09-12T04:17:34.706Z,4.97
2022-09-12T04:20:01.179Z,3.88
2022-09-12T04:22:28.153Z,4.47
2022-09-12T04:24:54.555Z,4.90
2022-09-12T04:27:21.051Z,4.38
2022-09-12T04:29:47.461Z,4.18
2022-09-12T04:32:15.058Z,4.05
2022-09-12T04:34:41.743Z,4.00
2022-09-12T04:37:08.170Z,4.07
2022-09-12T04:39:34.578Z,4.57
2022-09-12T04:42:00.974Z,4.28
2022-09-12T04:44:27.383Z,5.40
2022-09-12T04:46:53.766Z,3.83
2022-09-12T04:49:20.159Z,4.05
2022-09-12T04:51:46.851Z,4.25
2022-09-12T04:54:15.874Z,4.35
2022-09-12T04:56:44.938Z,4.55
2022-09-12T04:59:12.872Z,4.10
2022-09-12T05:01:39.406Z,4.85
2022-09-12T05:04:05.878Z,4.38
2022-09-12T05:06:34.557Z,4.55
2022-09-12T05:09:02.101Z,4.15
2022-09-12T05:12:00.114Z,7.22
2022-09-12T05:14:20.499Z,5.93
2022-09-12T05:16:49.426Z,5.13
2022-09-12T05:19:16.260Z,6.32
2022-09-12T05:21:42.729Z,4.78
2022-09-12T05:24:10.630Z,5.30
2022-09-12T05:26:37.050Z,5.20
2022-09-12T05:29:04.413Z,4.85
2022-09-12T05:31:30.810Z,4.90
2022-09-12T05:33:57.587Z,4.25
2022-09-12T05:36:27.953Z,4.68
2022-09-12T05:38:54.402Z,4.55
2022-09-12T05:41:26.433Z,7.18
2022-09-12T05:43:54.424Z,6.07
2022-09-12T05:46:22.300Z,5.90
2022-09-12T05:48:55.128Z,5.47
2022-09-12T05:51:25.426Z,4.68
2022-09-12T05:54:00.254Z,4.85
2022-09-12T05:56:28.541Z,4.47
2022-09-12T05:59:00.960Z,4.32
2022-09-12T06:01:28.395Z,5.10
2022-09-12T06:03:57.814Z,4.82
2022-09-12T06:06:25.138Z,4.60
2022-09-12T06:08:53.882Z,4.32
2022-09-12T06:11:23.006Z,4.20
2022-09-12T06:13:50.989Z,4.22
2022-09-12T06:16:19.539Z,5.88
2022-09-12T06:18:53.845Z,4.50
2022-09-12T06:21:21.296Z,4.60
2022-09-12T06:23:48.086Z,4.40
2022-09-12T06:26:16.764Z,4.00
2022-09-12T06:28:44.964Z,6.07
2022-09-12T06:31:17.314Z,4.55
2022-09-12T06:33:45.763Z,6.28
2022-09-12T06:36:19.127Z,5.00
2022-09-12T06:38:46.376Z,5.32
2022-09-12T06:41:13.622Z,4.63
2022-09-12T06:43:41.154Z,7.78
2022-09-12T06:46:08.412Z,4.85
2022-09-12T06:48:39.602Z,5.10
2022-09-12T06:51:13.410Z,5.03
2022-09-12T06:53:39.938Z,6.90
2022-09-12T06:56:09.678Z,5.97
2022-09-12T06:58:36.845Z,7.20
2022-09-12T07:01:09.449Z,7.38
2022-09-12T07:03:36.668Z,6.55
2022-09-12T07:06:04.367Z,5.22
2022-09-12T07:08:31.730Z,5.90
2022-09-12T07:11:10.249Z,5.22
2022-09-12T07:13:36.639Z,5.25
2022-09-12T07:16:04.195Z,6.03
2022-09-12T07:18:31.442Z,4.90
2022-09-12T07:21:02.791Z,4.95
2022-09-12T07:23:29.865Z,7.15
2022-09-12T07:25:57.660Z,4.57
2022-09-12T07:28:25.165Z,3.88
2022-09-12T07:30:53.857Z,3.67
2022-09-12T07:33:21.513Z,4.60
2022-09-12T07:35:47.963Z,3.38
2022-09-12T07:38:14.353Z,3.50
2022-09-12T07:40:40.838Z,4.28
2022-09-12T07:43:07.280Z,3.25
2022-09-12T07:45:33.849Z,3.75
2022-09-12T07:48:00.360Z,4.60
2022-09-12T07:50:26.863Z,4.90
2022-09-12T07:52:56.489Z,4.75
2022-09-12T07:55:23.191Z,5.10
2022-09-12T07:57:50.876Z,5.43
2022-09-12T08:00:18.210Z,4.50
2022-09-12T08:02:44.817Z,3.28
2022-09-12T08:05:11.488Z,4.85
2022-09-12T08:07:38.227Z,2.60
2022-09-12T08:10:06.481Z,2.72
2022-09-12T08:12:34.543Z,2.63
2022-09-12T08:15:00.966Z,2.58
2022-09-12T08:17:27.371Z,3.13
2022-09-12T08:19:53.748Z,3.60
2022-09-12T08:22:21.899Z,4.20
2022-09-12T08:24:49.567Z,3.30
2022-09-12T08:27:16.335Z,5.20
2022-09-12T08:29:42.701Z,3.80
2022-09-12T08:32:09.102Z,5.13
2022-09-12T08:34:35.761Z,3.65
2022-09-12T08:37:02.175Z,6.05
2022-09-12T08:39:28.606Z,4.72
2022-09-12T08:42:01.381Z,6.30
2022-09-12T08:44:51.733Z,5.40
2022-09-12T08:47:21.246Z,5.05
2022-09-12T08:49:58.859Z,5.35
2022-09-12T08:52:46.502Z,4.97
2022-09-12T08:55:34.756Z,5.35
2022-09-12T08:58:10.033Z,5.75
2022-09-12T09:00:59.525Z,5.97
2022-09-12T09:03:49.192Z,4.38
2022-09-12T09:06:33.682Z,4.60
2022-09-12T09:09:33.478Z,5.35
2022-09-12T09:12:07.700Z,7.65
2022-09-12T09:14:53.165Z,6.93
2022-09-12T09:17:35.031Z,5.53
2022-09-12T09:20:13.394Z,6.70
2022-09-12T09:22:48.434Z,8.65
2022-09-12T09:25:24.430Z,8.10
2022-09-12T09:28:02.188Z,6.68
2022-09-12T09:30:28.809Z,9.30
2022-09-12T09:32:57.882Z,7.18
2022-09-12T09:35:46.307Z,8.15
2022-09-12T09:38:43.142Z,7.85
2022-09-12T09:41:56.696Z,7.57
2022-09-12T09:44:23.469Z,5.88
2022-09-12T09:46:54.339Z,7.15
2022-09-12T09:49:21.284Z,8.98
2022-09-12T09:51:48.299Z,9.68
2022-09-12T09:54:19.849Z,8.75
2022-09-12T09:56:46.262Z,7.75
2022-09-12T09:59:29.962Z,9.88
2022-09-12T10:02:24.661Z,9.93
2022-09-12T10:04:57.527Z,5.85
2022-09-12T10:07:24.686Z,6.63
2022-09-12T10:10:17.250Z,5.93
2022-09-12T10:12:44.116Z,9.65
2022-09-12T10:15:19.614Z,6.13
2022-09-12T10:17:48.086Z,6.28
2022-09-12T10:20:44.401Z,7.03
2022-09-12T10:23:37.438Z,4.13
2022-09-12T10:26:12.574Z,6.75
2022-09-12T10:28:41.327Z,4.97
2022-09-12T10:31:09.734Z,7.35
2022-09-12T10:33:43.603Z,6.32
2022-09-12T10:36:10.054Z,5.80
2022-09-12T10:38:36.779Z,6.55
2022-09-12T10:41:06.498Z,6.03
2022-09-12T10:43:33.075Z,5.20
2022-09-12T10:46:20.452Z,6.85
2022-09-12T10:48:51.499Z,5.32
2022-09-12T10:51:24.018Z,5.25
2022-09-12T10:54:10.274Z,4.20
2022-09-12T10:56:51.384Z,5.22
2022-09-12T10:59:25.793Z,3.42
2022-09-12T11:02:12.522Z,3.20
2022-09-12T11:05:03.908Z,3.75
2022-09-12T11:08:14.964Z,3.85
2022-09-12T11:10:56.957Z,3.83
2022-09-12T11:13:28.262Z,5.43
2022-09-12T11:16:10.691Z,2.90
2022-09-12T11:19:04.011Z,3.33
2022-09-12T11:22:16.148Z,3.25
2022-09-12T11:25:12.861Z,3.05
2022-09-12T11:28:03.693Z,3.20
2022-09-12T11:30:49.538Z,3.50
2022-09-12T11:33:30.406Z,3.15
2022-09-12T11:35:57.780Z,2.83
2022-09-12T11:38:43.110Z,4.57
2022-09-12T11:41:26.209Z,5.57
2022-09-12T11:44:19.060Z,5.05
2022-09-12T11:46:48.741Z,4.65
2022-09-12T11:49:31.376Z,8.13
2022-09-12T11:52:20.982Z,3.25
2022-09-12T11:55:04.505Z,3.67
2022-09-12T11:57:35.919Z,5.85
2022-09-12T12:00:05.924Z,3.50
2022-09-12T12:02:40.392Z,3.13
2022-09-12T12:05:29.840Z,2.50
2022-09-12T12:07:58.706Z,7.55
2022-09-12T12:10:36.198Z,4.57
2022-09-12T12:13:13.366Z,4.85
2022-09-12T12:15:45.977Z,4.60
2022-09-12T12:18:19.130Z,3.00
2022-09-12T12:20:45.834Z,3.05
2022-09-12T12:23:31.293Z,3.28
2022-09-12T12:25:59.832Z,3.58
2022-09-12T12:28:52.425Z,2.65
2022-09-12T12:31:18.962Z,4.22
2022-09-12T12:33:45.296Z,2.53
2022-09-12T12:36:30.793Z,2.15
2022-09-12T12:38:57.314Z,2.38
2022-09-12T12:41:24.001Z,2.47
2022-09-12T12:43:52.212Z,2.95
2022-09-12T12:46:20.422Z,4.47
2022-09-12T12:48:53.732Z,2.42
2022-09-12T12:51:23.477Z,2.25
2022-09-12T12:53:50.770Z,3.03
2022-09-12T12:56:34.885Z,3.55
2022-09-12T12:59:03.872Z,2.22
2022-09-12T13:01:30.691Z,2.05
2022-09-12T13:04:01.502Z,2.15
2022-09-12T13:07:08.358Z,1.98
2022-09-12T13:09:45.362Z,3.28
2022-09-12T13:12:19.635Z,2.58
2022-09-12T13:14:51.398Z,2.00
2022-09-12T13:17:28.245Z,1.70
2022-09-12T13:20:27.896Z,2.00
2022-09-12T13:22:55.343Z,2.10
2022-09-12T13:25:23.882Z,2.05
2022-09-12T13:28:07.478Z,1.65
2022-09-12T13:30:36.979Z,1.70
2022-09-12T13:33:16.470Z,1.75
2022-09-12T13:35:58.042Z,2.03
2022-09-12T13:38:42.894Z,2.17
2022-09-12T13:41:21.284Z,1.60
2022-09-12T13:43:48.114Z,1.85
2022-09-12T13:46:17.836Z,1.98
2022-09-12T13:48:44.422Z,1.80
2022-09-12T13:51:23.029Z,1.65
2022-09-12T13:53:50.628Z,1.65
2022-09-12T13:56:17.872Z,1.45
2022-09-12T13:58:58.770Z,1.55
2022-09-12T14:01:37.988Z,1.65
2022-09-12T14:04:38.418Z,1.30
2022-09-12T14:07:19.537Z,1.95
2022-09-12T14:09:53.867Z,1.73
2022-09-12T14:12:36.665Z,2.50
2022-09-12T14:15:03.846Z,1.55
2022-09-12T14:17:36.172Z,1.50
2022-09-12T14:20:07.045Z,3.47
2022-09-12T14:22:34.697Z,1.90
2022-09-12T14:25:01.927Z,1.45
2022-09-12T14:27:50.759Z,1.35
2022-09-12T14:30:26.446Z,1.35
2022-09-12T14:33:05.921Z,1.70
2022-09-12T14:35:33.148Z,1.52
2022-09-12T14:38:26.715Z,1.50
2022-09-12T14:41:01.586Z,1.30
2022-09-12T14:43:30.624Z,1.20
2022-09-12T14:46:02.871Z,0.82
2022-09-12T14:48:32.304Z,0.80
2022-09-12T14:50:59.054Z,0.82
2022-09-12T14:53:34.817Z,0.82
2022-09-12T14:56:12.486Z,1.50
2022-09-12T14:58:40.429Z,1.17
2022-09-12T15:01:07.129Z,2.80
2022-09-12T15:03:49.403Z,0.82
2022-09-12T15:06:32.978Z,1.00
2022-09-12T15:09:00.788Z,1.17
2022-09-12T15:11:27.443Z,0.88
2022-09-12T15:13:53.846Z,2.15
2022-09-12T15:16:20.498Z,1.25
2022-09-12T15:18:46.936Z,1.45
2022-09-12T15:21:17.104Z,1.48
2022-09-12T15:23:50.179Z,1.70
2022-09-12T15:26:22.475Z,3.63
2022-09-12T15:28:49.519Z,1.77
2022-09-12T15:31:22.780Z,1.00
2022-09-12T15:33:49.308Z,1.10
2022-09-12T15:36:17.582Z,1.40
2022-09-12T15:38:44.992Z,2.35
2022-09-12T15:41:15.008Z,0.63
2022-09-12T15:43:41.444Z,0.80
2022-09-12T15:46:11.625Z,1.27
2022-09-12T15:48:38.351Z,0.60
2022-09-12T15:51:05.796Z,1.52
2022-09-12T15:53:32.263Z,1.45
2022-09-12T15:55:58.725Z,1.20
2022-09-12T15:58:25.227Z,0.70
2022-09-12T16:00:51.628Z,0.70
2022-09-12T16:03:22.829Z,0.95
2022-09-12T16:05:50.001Z,0.60
2022-09-12T16:08:16.408Z,1.02
2022-09-12T16:10:43.475Z,0.68
2022-09-12T16:13:09.880Z,0.93
2022-09-12T16:15:37.635Z,0.90
2022-09-12T16:18:04.130Z,0.73
2022-09-12T16:20:30.528Z,0.70
2022-09-12T16:22:56.923Z,1.08
2022-09-12T16:25:23.338Z,1.58
2022-09-12T16:27:50.000Z,1.38
2022-09-12T16:30:16.476Z,1.38
2022-09-12T16:32:42.897Z,2.50
2022-09-12T16:35:09.736Z,1.23
2022-09-12T16:37:36.469Z,1.48
2022-09-12T16:40:04.089Z,1.38
2022-09-12T16:42:30.737Z,2.08
2022-09-12T16:44:57.133Z,1.17
2022-09-12T16:47:23.527Z,1.50
2022-09-12T16:49:51.164Z,1.30
2022-09-12T16:52:17.621Z,1.38
2022-09-12T16:54:46.804Z,2.13
2022-09-12T16:57:13.199Z,1.17
2022-09-12T16:59:39.657Z,1.80
2022-09-12T17:02:06.356Z,1.38
2022-09-12T17:04:32.886Z,2.00
2022-09-12T17:06:59.569Z,1.95
2022-09-12T17:09:27.377Z,1.35
2022-09-12T17:11:53.797Z,1.73
2022-09-12T17:14:20.209Z,1.27
2022-09-12T17:16:51.504Z,1.45
2022-09-12T17:19:26.443Z,2.72
2022-09-12T17:21:53.408Z,1.33
2022-09-12T17:24:20.136Z,1.98
2022-09-12T17:26:46.561Z,1.50
2022-09-12T17:29:13.924Z,1.98
2022-09-12T17:31:41.240Z,1.50
2022-09-12T17:34:07.994Z,1.92
2022-09-12T17:36:34.489Z,1.50
2022-09-12T17:39:03.594Z,2.92
2022-09-12T17:41:31.850Z,1.95
2022-09-12T17:43:59.662Z,1.75
2022-09-12T17:46:32.835Z,1.65
2022-09-12T17:49:00.905Z,1.83
2022-09-12T17:51:30.575Z,1.75
2022-09-12T17:54:05.471Z,1.40
2022-09-12T17:56:33.231Z,2.47
2022-09-12T17:58:59.954Z,2.88
2022-09-12T18:01:45.509Z,2.25
2022-09-12T18:04:12.163Z,1.83
2022-09-12T18:06:39.989Z,2.58
2022-09-12T18:09:08.477Z,1.70
2022-09-12T18:11:35.435Z,1.60
2022-09-12T18:14:02.597Z,1.88
2022-09-12T18:16:29.002Z,1.90
2022-09-12T18:18:55.547Z,1.70
2022-09-12T18:21:22.011Z,1.77
2022-09-12T18:23:48.421Z,1.30
2022-09-12T18:26:14.979Z,1.52
2022-09-12T18:28:42.756Z,1.90
2022-09-12T18:31:15.272Z,1.67
2022-09-12T18:33:42.134Z,2.20
2022-09-12T18:36:10.624Z,2.65
2022-09-12T18:38:37.630Z,2.10
2022-09-12T18:41:18.308Z,1.67
2022-09-12T18:43:45.101Z,1.63
2022-09-12T18:46:13.423Z,1.60
2022-09-12T18:48:40.031Z,1.63
2022-09-12T18:51:09.839Z,2.00
2022-09-12T18:53:36.981Z,1.75
2022-09-12T18:56:08.627Z,2.92
2022-09-12T18:58:40.497Z,3.08
2022-09-12T19:01:16.006Z,2.17
2022-09-12T19:03:42.770Z,1.83
2022-09-12T19:06:17.654Z,2.00
2022-09-12T19:08:44.565Z,1.80
2022-09-12T19:11:11.311Z,1.95
2022-09-12T19:13:39.714Z,1.80
2022-09-12T19:16:09.292Z,1.90
2022-09-12T19:18:37.004Z,1.73
2022-09-12T19:21:13.842Z,2.05
2022-09-12T19:23:40.349Z,2.20
2022-09-12T19:26:08.563Z,2.67
2022-09-12T19:28:35.374Z,2.80
2022-09-12T19:31:09.991Z,2.75
2022-09-12T19:33:36.862Z,2.08
2022-09-12T19:36:27.290Z,2.22
2022-09-12T19:38:55.451Z,2.10
2022-09-12T19:41:21.916Z,2.90
2022-09-12T19:43:48.333Z,1.95
2022-09-12T19:46:17.250Z,2.10
2022-09-12T19:48:44.853Z,2.03
2022-09-12T19:51:11.849Z,2.80
2022-09-12T19:53:38.347Z,3.03
2022-09-12T19:56:05.798Z,2.35
2022-09-12T19:58:35.514Z,2.42
2022-09-12T20:01:14.352Z,2.15
2022-09-12T20:03:41.187Z,3.05
2022-09-12T20:06:09.751Z,2.45
2022-09-12T20:08:45.639Z,2.83
2022-09-12T20:11:13.898Z,2.50
2022-09-12T20:13:41.139Z,3.60
2022-09-12T20:16:21.698Z,2.70
2022-09-12T20:18:55.976Z,2.63
2022-09-12T20:21:25.256Z,3.10
2022-09-12T20:23:51.928Z,2.95
2022-09-12T20:26:20.175Z,2.95
2022-09-12T20:28:46.677Z,2.60
2022-09-12T20:31:15.695Z,2.63
2022-09-12T20:33:42.836Z,2.60
2022-09-12T20:36:16.073Z,3.63
2022-09-12T20:38:47.485Z,3.58
2022-09-12T20:41:13.936Z,2.80
2022-09-12T20:43:40.841Z,2.50
2022-09-12T20:46:09.783Z,3.20
2022-09-12T20:48:37.005Z,3.10
2022-09-12T20:51:03.903Z,2.55
2022-09-12T20:53:34.708Z,3.05
2022-09-12T20:56:01.920Z,3.15
2022-09-12T20:58:28.320Z,2.72
2022-09-12T21:00:54.749Z,2.97
2022-09-12T21:03:21.160Z,3.30
2022-09-12T21:05:47.607Z,2.80
2022-09-12T21:08:14.318Z,3.35
2022-09-12T21:10:42.045Z,2.55
2022-09-12T21:13:10.253Z,3.70
2022-09-12T21:15:38.510Z,3.13
2022-09-12T21:18:05.348Z,2.97
2022-09-12T21:20:32.434Z,3.17
2022-09-12T21:22:59.099Z,3.03
2022-09-12T21:25:25.559Z,4.45
2022-09-12T21:27:51.974Z,5.47
2022-09-12T21:30:18.371Z,3.83
2022-09-12T21:32:44.826Z,3.35
2022-09-12T21:35:11.279Z,3.50
2022-09-12T21:37:37.732Z,3.30
2022-09-12T21:40:04.448Z,3.28
2022-09-12T21:42:31.711Z,3.17
2022-09-12T21:44:58.116Z,5.05
2022-09-12T21:47:24.645Z,4.15
2022-09-12T21:49:51.052Z,4.72
2022-09-12T21:52:17.439Z,3.53
2022-09-12T21:54:43.850Z,4.25
2022-09-12T21:57:10.228Z,3.75
2022-09-12T21:59:36.666Z,4.35
2022-09-12T22:02:03.135Z,4.75
2022-09-12T22:04:30.853Z,2.88
2022-09-12T22:06:57.494Z,3.90
2022-09-12T22:09:23.883Z,3.58
2022-09-12T22:11:50.298Z,3.67
2022-09-12T22:14:17.469Z,3.80
2022-09-12T22:16:43.988Z,4.13
2022-09-12T22:19:10.369Z,4.10
2022-09-12T22:21:56.719Z,3.83
2022-09-12T22:24:29.488Z,3.67
2022-09-12T22:26:57.366Z,4.13
2022-09-12T22:29:23.756Z,3.72
2022-09-12T22:31:50.345Z,4.32
2022-09-12T22:34:16.874Z,3.58
2022-09-12T22:36:43.820Z,4.35
2022-09-12T22:39:10.216Z,3.85
2022-09-12T22:41:36.602Z,4.18
2022-09-12T22:44:03.093Z,4.10
2022-09-12T22:46:30.442Z,3.85
2022-09-12T22:48:56.907Z,3.97
2022-09-12T22:51:23.542Z,4.10
2022-09-12T22:53:49.974Z,4.35
2022-09-12T22:56:16.364Z,3.72
2022-09-12T22:58:43.489Z,4.47
2022-09-12T23:01:10.758Z,4.30
2022-09-12T23:03:37.451Z,5.38
2022-09-12T23:06:04.607Z,6.15
2022-09-12T23:08:31.093Z,5.13
2022-09-12T23:11:09.393Z,5.20
2022-09-12T23:13:37.001Z,5.78
2022-09-12T23:16:05.950Z,5.45
2022-09-12T23:18:35.410Z,7.03
2022-09-12T23:21:04.592Z,5.15
2022-09-12T23:23:31.301Z,5.65
2022-09-12T23:26:14.009Z,6.10
2022-09-12T23:28:41.645Z,4.93
2022-09-12T23:31:09.656Z,6.15
2022-09-12T23:33:36.245Z,5.32
2022-09-12T23:36:07.942Z,4.93
2022-09-12T23:38:35.507Z,5.53
2022-09-12T23:41:03.300Z,6.75
2022-09-12T23:43:30.316Z,5.55
2022-09-12T23:45:57.740Z,5.35
2022-09-12T23:48:24.241Z,5.32
2022-09-12T23:50:50.673Z,7.10
2022-09-12T23:53:17.622Z,9.80
2022-09-12T23:55:44.851Z,5.68
2022-09-12T23:58:11.853Z,5.78
